sensor_id;sensor_type;location;lat;lon;timestamp;pressure;altitude;pressure_sealevel;temperature;humidity
59829;BME280;45708;51.848;107.620;2023-03-21T00:00:38;94512.13;;;-8.28;59.38
59829;BME280;45708;51.848;107.620;2023-03-21T00:05:42;94506.50;;;-8.22;59.65
59829;BME280;45708;51.848;107.620;2023-03-21T00:10:43;94514.63;;;-8.06;60.94
59829;BME280;45708;51.848;107.620;2023-03-21T00:15:44;94503.78;;;-7.98;59.35
59829;BME280;45708;51.848;107.620;2023-03-21T00:20:57;94518.38;;;-8.10;60.05
59829;BME280;45708;51.848;107.620;2023-03-21T00:25:59;94527.44;;;-8.06;57.82
59829;BME280;45708;51.848;107.620;2023-03-21T00:31:00;94520.44;;;-8.04;56.43
59829;BME280;45708;51.848;107.620;2023-03-21T00:36:01;94529.94;;;-8.27;57.26
59829;BME280;45708;51.848;107.620;2023-03-21T00:41:06;94562.63;;;-7.97;56.23
59829;BME280;45708;51.848;107.620;2023-03-21T00:46:08;94566.94;;;-7.97;54.77
59829;BME280;45708;51.848;107.620;2023-03-21T00:51:14;94577.44;;;-8.22;54.68
59829;BME280;45708;51.848;107.620;2023-03-21T00:56:18;94581.03;;;-8.14;54.92
59829;BME280;45708;51.848;107.620;2023-03-21T01:01:19;94585.69;;;-7.97;52.68
59829;BME280;45708;51.848;107.620;2023-03-21T01:06:20;94604.78;;;-7.89;51.87
59829;BME280;45708;51.848;107.620;2023-03-21T01:11:24;94602.91;;;-7.87;50.49
59829;BME280;45708;51.848;107.620;2023-03-21T01:16:25;94605.59;;;-7.89;49.92
59829;BME280;45708;51.848;107.620;2023-03-21T01:21:26;94630.16;;;-7.75;49.20
59829;BME280;45708;51.848;107.620;2023-03-21T01:26:27;94631.53;;;-7.71;49.40
59829;BME280;45708;51.848;107.620;2023-03-21T01:31:29;94633.50;;;-7.63;49.33
59829;BME280;45708;51.848;107.620;2023-03-21T01:36:30;94646.44;;;-7.54;48.19
59829;BME280;45708;51.848;107.620;2023-03-21T01:41:37;94648.75;;;-7.51;46.59
59829;BME280;45708;51.848;107.620;2023-03-21T01:46:40;94654.06;;;-7.43;46.75
59829;BME280;45708;51.848;107.620;2023-03-21T01:51:44;94657.88;;;-7.58;44.81
59829;BME280;45708;51.848;107.620;2023-03-21T01:56:47;94669.22;;;-7.28;46.94
59829;BME280;45708;51.848;107.620;2023-03-21T02:01:49;94672.84;;;-6.99;47.08
59829;BME280;45708;51.848;107.620;2023-03-21T02:07:11;94679.56;;;-6.87;46.58
59829;BME280;45708;51.848;107.620;2023-03-21T02:12:13;94687.28;;;-6.45;47.01
59829;BME280;45708;51.848;107.620;2023-03-21T02:23:19;94692.91;;;-7.04;44.88
59829;BME280;45708;51.848;107.620;2023-03-21T02:28:50;94624.56;;;-7.80;45.04
59829;BME280;45708;51.848;107.620;2023-03-21T02:44:48;94713.19;;;-7.44;46.04
59829;BME280;45708;51.848;107.620;2023-03-21T02:50:12;94733.63;;;-7.54;45.35
59829;BME280;45708;51.848;107.620;2023-03-21T02:55:21;94736.44;;;-7.57;45.24
59829;BME280;45708;51.848;107.620;2023-03-21T03:00:27;94716.84;;;-7.58;45.37
59829;BME280;45708;51.848;107.620;2023-03-21T03:05:30;94710.25;;;-7.28;45.41
59829;BME280;45708;51.848;107.620;2023-03-21T03:21:31;94707.66;;;-6.53;45.05
59829;BME280;45708;51.848;107.620;2023-03-21T03:32:07;94709.75;;;-5.86;44.99
59829;BME280;45708;51.848;107.620;2023-03-21T03:37:13;94713.72;;;-6.13;43.58
59829;BME280;45708;51.848;107.620;2023-03-21T03:42:19;94720.50;;;-6.53;45.01
59829;BME280;45708;51.848;107.620;2023-03-21T03:47:31;94742.16;;;-6.99;44.69
59829;BME280;45708;51.848;107.620;2023-03-21T03:52:45;94731.25;;;-7.23;45.46
59829;BME280;45708;51.848;107.620;2023-03-21T03:57:48;94737.59;;;-8.06;47.49
59829;BME280;45708;51.848;107.620;2023-03-21T04:02:49;94747.56;;;-8.25;48.16
59829;BME280;45708;51.848;107.620;2023-03-21T04:07:50;94731.31;;;-8.35;48.16
59829;BME280;45708;51.848;107.620;2023-03-21T04:12:51;94738.06;;;-8.34;48.07
59829;BME280;45708;51.848;107.620;2023-03-21T04:17:53;94740.59;;;-8.23;47.34
59829;BME280;45708;51.848;107.620;2023-03-21T04:22:54;94746.66;;;-8.35;47.33
59829;BME280;45708;51.848;107.620;2023-03-21T04:27:54;94738.06;;;-8.34;47.49
59829;BME280;45708;51.848;107.620;2023-03-21T04:32:55;94728.47;;;-8.32;46.55
59829;BME280;45708;51.848;107.620;2023-03-21T04:37:56;94744.31;;;-8.49;46.16
59829;BME280;45708;51.848;107.620;2023-03-21T04:42:57;94735.41;;;-8.68;46.98
59829;BME280;45708;51.848;107.620;2023-03-21T04:47:57;94723.97;;;-8.75;47.13
59829;BME280;45708;51.848;107.620;2023-03-21T04:52:58;94732.59;;;-8.76;46.78
59829;BME280;45708;51.848;107.620;2023-03-21T04:57:59;94714.25;;;-8.58;46.74
59829;BME280;45708;51.848;107.620;2023-03-21T05:03:00;94728.63;;;-8.34;46.12
59829;BME280;45708;51.848;107.620;2023-03-21T05:08:01;94729.06;;;-8.51;45.25
59829;BME280;45708;51.848;107.620;2023-03-21T05:13:02;94733.19;;;-8.72;45.54
59829;BME280;45708;51.848;107.620;2023-03-21T05:18:03;94740.06;;;-8.62;44.78
59829;BME280;45708;51.848;107.620;2023-03-21T05:23:04;94746.75;;;-8.83;45.00
59829;BME280;45708;51.848;107.620;2023-03-21T05:28:06;94735.63;;;-8.71;46.02
59829;BME280;45708;51.848;107.620;2023-03-21T05:33:08;94733.59;;;-8.43;44.99
59829;BME280;45708;51.848;107.620;2023-03-21T05:38:09;94713.56;;;-8.49;44.62
59829;BME280;45708;51.848;107.620;2023-03-21T05:43:09;94721.88;;;-8.35;43.54
59829;BME280;45708;51.848;107.620;2023-03-21T05:48:10;94727.06;;;-8.47;44.87
59829;BME280;45708;51.848;107.620;2023-03-21T05:53:11;94726.59;;;-8.41;44.50
59829;BME280;45708;51.848;107.620;2023-03-21T05:58:12;94733.00;;;-8.47;43.68
59829;BME280;45708;51.848;107.620;2023-03-21T06:03:13;94723.88;;;-8.62;44.04
59829;BME280;45708;51.848;107.620;2023-03-21T06:08:14;94713.88;;;-8.65;44.38
59829;BME280;45708;51.848;107.620;2023-03-21T06:13:15;94726.13;;;-8.46;44.78
59829;BME280;45708;51.848;107.620;2023-03-21T06:18:15;94724.50;;;-8.47;43.64
59829;BME280;45708;51.848;107.620;2023-03-21T06:23:16;94721.50;;;-8.41;44.17
59829;BME280;45708;51.848;107.620;2023-03-21T06:28:17;94713.75;;;-8.75;44.00
59829;BME280;45708;51.848;107.620;2023-03-21T06:33:18;94734.94;;;-8.62;44.09
59829;BME280;45708;51.848;107.620;2023-03-21T06:38:19;94741.78;;;-8.16;44.11
59829;BME280;45708;51.848;107.620;2023-03-21T06:43:20;94740.16;;;-8.39;44.14
59829;BME280;45708;51.848;107.620;2023-03-21T06:48:21;94750.16;;;-8.36;44.57
59829;BME280;45708;51.848;107.620;2023-03-21T06:53:24;94744.06;;;-8.46;44.15
59829;BME280;45708;51.848;107.620;2023-03-21T06:58:25;94747.34;;;-8.44;44.03
59829;BME280;45708;51.848;107.620;2023-03-21T07:03:25;94754.09;;;-8.21;44.54
59829;BME280;45708;51.848;107.620;2023-03-21T07:08:26;94748.03;;;-8.31;44.51
59829;BME280;45708;51.848;107.620;2023-03-21T07:13:27;94753.19;;;-8.20;43.96
59829;BME280;45708;51.848;107.620;2023-03-21T07:18:28;94747.09;;;-8.30;43.88
59829;BME280;45708;51.848;107.620;2023-03-21T07:23:29;94734.22;;;-8.17;43.15
59829;BME280;45708;51.848;107.620;2023-03-21T07:28:32;94743.63;;;-8.29;42.36
59829;BME280;45708;51.848;107.620;2023-03-21T07:33:33;94759.22;;;-8.43;42.51
59829;BME280;45708;51.848;107.620;2023-03-21T07:38:33;94744.34;;;-8.38;41.91
59829;BME280;45708;51.848;107.620;2023-03-21T07:43:34;94737.94;;;-8.10;41.97
59829;BME280;45708;51.848;107.620;2023-03-21T07:48:35;94743.75;;;-8.19;40.99
59829;BME280;45708;51.848;107.620;2023-03-21T07:53:36;94743.66;;;-8.40;40.13
59829;BME280;45708;51.848;107.620;2023-03-21T07:58:37;94749.13;;;-8.34;40.99
59829;BME280;45708;51.848;107.620;2023-03-21T08:03:38;94764.34;;;-8.21;40.57
59829;BME280;45708;51.848;107.620;2023-03-21T08:08:39;94753.88;;;-8.29;40.97
59829;BME280;45708;51.848;107.620;2023-03-21T08:13:40;94753.53;;;-8.24;40.40
59829;BME280;45708;51.848;107.620;2023-03-21T08:18:40;94769.59;;;-8.22;40.98
59829;BME280;45708;51.848;107.620;2023-03-21T08:30:42;94725.03;;;-9.01;40.47
59829;BME280;45708;51.848;107.620;2023-03-21T08:35:43;94679.47;;;-9.44;40.70
59829;BME280;45708;51.848;107.620;2023-03-21T08:40:45;94766.78;;;-9.25;40.46
59829;BME280;45708;51.848;107.620;2023-03-21T08:45:46;94763.41;;;-9.01;40.59
59829;BME280;45708;51.848;107.620;2023-03-21T08:50:47;94711.28;;;-9.35;39.62
59829;BME280;45708;51.848;107.620;2023-03-21T08:55:48;94646.91;;;-9.77;40.39
59829;BME280;45708;51.848;107.620;2023-03-21T09:00:50;94717.69;;;-9.30;39.55
59829;BME280;45708;51.848;107.620;2023-03-21T09:05:52;94723.50;;;-9.28;39.69
59829;BME280;45708;51.848;107.620;2023-03-21T09:15:57;94776.59;;;-9.18;38.27
59829;BME280;45708;51.848;107.620;2023-03-21T09:20:58;94786.16;;;-9.09;39.50
59829;BME280;45708;51.848;107.620;2023-03-21T09:26:00;94803.00;;;-8.94;39.50
59829;BME280;45708;51.848;107.620;2023-03-21T09:31:01;94802.47;;;-8.86;40.19
59829;BME280;45708;51.848;107.620;2023-03-21T09:36:01;94805.59;;;-9.07;38.94
59829;BME280;45708;51.848;107.620;2023-03-21T09:41:24;94814.25;;;-9.21;39.80
59829;BME280;45708;51.848;107.620;2023-03-21T09:51:43;94805.69;;;-9.45;40.58
59829;BME280;45708;51.848;107.620;2023-03-21T09:56:48;94817.50;;;-9.55;39.75
59829;BME280;45708;51.848;107.620;2023-03-21T10:01:53;94821.91;;;-9.57;38.71
59829;BME280;45708;51.848;107.620;2023-03-21T10:06:58;94828.97;;;-9.73;39.92
59829;BME280;45708;51.848;107.620;2023-03-21T10:12:03;94838.47;;;-9.75;40.23
59829;BME280;45708;51.848;107.620;2023-03-21T10:17:31;94844.50;;;-9.76;40.54
59829;BME280;45708;51.848;107.620;2023-03-21T10:22:34;94847.06;;;-9.89;41.35
59829;BME280;45708;51.848;107.620;2023-03-21T10:27:35;94858.59;;;-9.96;40.67
59829;BME280;45708;51.848;107.620;2023-03-21T10:32:36;94859.72;;;-10.00;40.21
59829;BME280;45708;51.848;107.620;2023-03-21T10:37:37;94866.84;;;-10.18;41.22
59829;BME280;45708;51.848;107.620;2023-03-21T10:42:38;94860.13;;;-10.06;40.29
59829;BME280;45708;51.848;107.620;2023-03-21T10:47:39;94889.34;;;-10.23;41.34
59829;BME280;45708;51.848;107.620;2023-03-21T10:52:51;94893.22;;;-10.30;40.46
59829;BME280;45708;51.848;107.620;2023-03-21T10:58:01;94902.44;;;-10.42;40.85
59829;BME280;45708;51.848;107.620;2023-03-21T11:03:04;94892.13;;;-10.53;40.80
59829;BME280;45708;51.848;107.620;2023-03-21T11:08:10;94906.81;;;-10.57;40.22
59829;BME280;45708;51.848;107.620;2023-03-21T11:13:31;94928.72;;;-10.67;41.05
59829;BME280;45708;51.848;107.620;2023-03-21T11:18:42;94920.00;;;-10.77;41.52
59829;BME280;45708;51.848;107.620;2023-03-21T11:23:48;94938.56;;;-10.61;40.75
59829;BME280;45708;51.848;107.620;2023-03-21T11:28:50;94935.66;;;-10.83;40.88
59829;BME280;45708;51.848;107.620;2023-03-21T11:33:55;94951.34;;;-10.89;41.74
59829;BME280;45708;51.848;107.620;2023-03-21T11:38:58;94958.81;;;-10.86;42.44
59829;BME280;45708;51.848;107.620;2023-03-21T11:44:01;94953.28;;;-11.07;42.54
59829;BME280;45708;51.848;107.620;2023-03-21T11:49:02;94962.75;;;-10.95;41.66
59829;BME280;45708;51.848;107.620;2023-03-21T11:54:11;94966.84;;;-10.92;42.57
59829;BME280;45708;51.848;107.620;2023-03-21T12:20:34;95014.69;;;-11.10;42.38
59829;BME280;45708;51.848;107.620;2023-03-21T12:25:51;95015.97;;;-11.17;42.48
59829;BME280;45708;51.848;107.620;2023-03-21T12:31:18;95027.88;;;-11.18;43.19
59829;BME280;45708;51.848;107.620;2023-03-21T12:47:06;95026.78;;;-11.28;43.09
59829;BME280;45708;51.848;107.620;2023-03-21T12:52:15;95040.44;;;-11.29;43.26
59829;BME280;45708;51.848;107.620;2023-03-21T12:57:24;95052.44;;;-11.31;43.71
59829;BME280;45708;51.848;107.620;2023-03-21T13:02:31;95048.22;;;-11.46;44.03
59829;BME280;45708;51.848;107.620;2023-03-21T13:07:37;95062.84;;;-11.34;44.16
59829;BME280;45708;51.848;107.620;2023-03-21T13:24:16;95077.13;;;-11.61;45.33
59829;BME280;45708;51.848;107.620;2023-03-21T13:29:28;95078.19;;;-11.66;45.92
59829;BME280;45708;51.848;107.620;2023-03-21T13:34:31;95081.66;;;-11.67;45.74
59829;BME280;45708;51.848;107.620;2023-03-21T13:39:33;95078.72;;;-11.75;46.11
59829;BME280;45708;51.848;107.620;2023-03-21T13:44:48;95075.66;;;-11.66;46.25
59829;BME280;45708;51.848;107.620;2023-03-21T13:55:18;95085.75;;;-11.78;46.31
59829;BME280;45708;51.848;107.620;2023-03-21T14:00:27;95075.16;;;-11.86;47.23
59829;BME280;45708;51.848;107.620;2023-03-21T14:05:28;95078.44;;;-11.84;46.94
59829;BME280;45708;51.848;107.620;2023-03-21T14:10:39;95083.97;;;-11.92;46.98
59829;BME280;45708;51.848;107.620;2023-03-21T14:20:55;95084.13;;;-11.95;46.95
59829;BME280;45708;51.848;107.620;2023-03-21T14:25:56;95089.47;;;-12.00;46.86
59829;BME280;45708;51.848;107.620;2023-03-21T14:30:59;95081.94;;;-12.01;46.46
59829;BME280;45708;51.848;107.620;2023-03-21T14:36:15;95085.53;;;-12.05;46.60
59829;BME280;45708;51.848;107.620;2023-03-21T14:41:26;95083.50;;;-12.14;46.32
59829;BME280;45708;51.848;107.620;2023-03-21T14:46:27;95092.16;;;-12.03;46.53
59829;BME280;45708;51.848;107.620;2023-03-21T14:51:28;95079.13;;;-12.12;46.27
59829;BME280;45708;51.848;107.620;2023-03-21T14:56:29;95085.88;;;-12.11;46.01
59829;BME280;45708;51.848;107.620;2023-03-21T15:01:33;95090.38;;;-12.01;45.63
59829;BME280;45708;51.848;107.620;2023-03-21T15:06:48;95093.75;;;-12.00;45.45
59829;BME280;45708;51.848;107.620;2023-03-21T15:11:53;95088.59;;;-12.14;45.36
59829;BME280;45708;51.848;107.620;2023-03-21T15:16:55;95095.16;;;-12.10;45.51
59829;BME280;45708;51.848;107.620;2023-03-21T15:22:03;95100.16;;;-12.09;46.08
59829;BME280;45708;51.848;107.620;2023-03-21T15:27:18;95096.78;;;-12.09;45.56
59829;BME280;45708;51.848;107.620;2023-03-21T15:32:26;95094.56;;;-12.00;45.56
59829;BME280;45708;51.848;107.620;2023-03-21T15:37:33;95107.22;;;-11.98;45.72
59829;BME280;45708;51.848;107.620;2023-03-21T15:42:40;95098.34;;;-12.07;45.46
59829;BME280;45708;51.848;107.620;2023-03-21T15:47:54;95098.75;;;-12.14;45.70
59829;BME280;45708;51.848;107.620;2023-03-21T15:53:15;95099.50;;;-12.12;45.99
59829;BME280;45708;51.848;107.620;2023-03-21T15:58:25;95098.03;;;-12.16;45.69
59829;BME280;45708;51.848;107.620;2023-03-21T16:03:29;95083.66;;;-12.17;45.73
59829;BME280;45708;51.848;107.620;2023-03-21T16:09:24;95094.31;;;-12.11;45.42
59829;BME280;45708;51.848;107.620;2023-03-21T16:14:00;95096.78;;;-12.09;45.56
59829;BME280;45708;51.848;107.620;2023-03-21T16:19:01;95078.66;;;-12.19;46.11
59829;BME280;45708;51.848;107.620;2023-03-21T16:24:02;95096.56;;;-12.20;45.59
59829;BME280;45708;51.848;107.620;2023-03-21T16:29:04;95098.19;;;-12.19;45.50
59829;BME280;45708;51.848;107.620;2023-03-21T16:34:05;95106.06;;;-12.24;46.10
59829;BME280;45708;51.848;107.620;2023-03-21T16:39:20;95106.13;;;-12.25;45.77
59829;BME280;45708;51.848;107.620;2023-03-21T16:44:21;95107.94;;;-12.27;45.73
59829;BME280;45708;51.848;107.620;2023-03-21T16:49:25;95106.47;;;-12.32;45.76
59829;BME280;45708;51.848;107.620;2023-03-21T16:54:26;95113.03;;;-12.27;46.23
59829;BME280;45708;51.848;107.620;2023-03-21T16:59:27;95106.22;;;-12.27;46.21
59829;BME280;45708;51.848;107.620;2023-03-21T17:04:27;95089.47;;;-12.47;46.14
59829;BME280;45708;51.848;107.620;2023-03-21T17:09:28;95104.44;;;-12.41;46.01
59829;BME280;45708;51.848;107.620;2023-03-21T17:14:29;95114.44;;;-12.38;46.15
59829;BME280;45708;51.848;107.620;2023-03-21T17:19:30;95121.34;;;-12.40;46.40
59829;BME280;45708;51.848;107.620;2023-03-21T17:24:32;95116.72;;;-12.49;46.00
59829;BME280;45708;51.848;107.620;2023-03-21T17:29:33;95113.34;;;-12.49;45.95
59829;BME280;45708;51.848;107.620;2023-03-21T17:34:34;95112.19;;;-12.44;46.29
59829;BME280;45708;51.848;107.620;2023-03-21T17:39:34;95114.00;;;-12.46;46.43
59829;BME280;45708;51.848;107.620;2023-03-21T17:44:35;95116.88;;;-12.52;46.04
59829;BME280;45708;51.848;107.620;2023-03-21T17:49:36;95113.44;;;-12.51;46.93
59829;BME280;45708;51.848;107.620;2023-03-21T17:54:37;95112.78;;;-12.54;46.67
59829;BME280;45708;51.848;107.620;2023-03-21T17:59:38;95117.22;;;-12.58;46.41
59829;BME280;45708;51.848;107.620;2023-03-21T18:04:39;95112.94;;;-12.57;46.69
59829;BME280;45708;51.848;107.620;2023-03-21T18:09:40;95117.03;;;-12.55;46.62
59829;BME280;45708;51.848;107.620;2023-03-21T18:14:40;95125.13;;;-12.64;45.76
59829;BME280;45708;51.848;107.620;2023-03-21T18:19:41;95141.31;;;-12.65;46.03
59829;BME280;45708;51.848;107.620;2023-03-21T18:24:43;95151.63;;;-12.68;45.91
59829;BME280;45708;51.848;107.620;2023-03-21T18:29:43;95137.34;;;-12.71;46.49
59829;BME280;45708;51.848;107.620;2023-03-21T18:34:44;95151.78;;;-12.71;46.14
59829;BME280;45708;51.848;107.620;2023-03-21T18:39:45;95149.19;;;-12.70;45.64
59829;BME280;45708;51.848;107.620;2023-03-21T18:44:46;95159.84;;;-12.63;45.67
59829;BME280;45708;51.848;107.620;2023-03-21T18:49:46;95167.72;;;-12.68;46.46
59829;BME280;45708;51.848;107.620;2023-03-21T18:54:47;95156.06;;;-12.72;46.26
59829;BME280;45708;51.848;107.620;2023-03-21T18:59:48;95166.75;;;-12.65;45.84
59829;BME280;45708;51.848;107.620;2023-03-21T19:04:49;95164.09;;;-12.79;45.90
59829;BME280;45708;51.848;107.620;2023-03-21T19:09:51;95157.38;;;-12.80;45.92
59829;BME280;45708;51.848;107.620;2023-03-21T19:14:52;95170.38;;;-12.86;45.81
59829;BME280;45708;51.848;107.620;2023-03-21T19:19:53;95167.53;;;-12.80;45.60
59829;BME280;45708;51.848;107.620;2023-03-21T19:24:54;95152.41;;;-12.83;45.50
59829;BME280;45708;51.848;107.620;2023-03-21T19:29:55;95173.38;;;-12.96;45.38
59829;BME280;45708;51.848;107.620;2023-03-21T19:34:55;95168.06;;;-13.08;45.21
59829;BME280;45708;51.848;107.620;2023-03-21T19:39:56;95162.00;;;-13.06;45.28
59829;BME280;45708;51.848;107.620;2023-03-21T19:44:57;95162.16;;;-13.09;44.70
59829;BME280;45708;51.848;107.620;2023-03-21T19:49:58;95165.69;;;-13.11;45.29
59829;BME280;45708;51.848;107.620;2023-03-21T19:54:59;95179.06;;;-13.08;44.41
59829;BME280;45708;51.848;107.620;2023-03-21T20:00:00;95164.44;;;-13.20;45.65
59829;BME280;45708;51.848;107.620;2023-03-21T20:05:01;95179.16;;;-13.27;46.27
59829;BME280;45708;51.848;107.620;2023-03-21T20:10:02;95190.28;;;-13.29;45.87
59829;BME280;45708;51.848;107.620;2023-03-21T20:15:04;95195.75;;;-13.37;45.86
59829;BME280;45708;51.848;107.620;2023-03-21T20:20:05;95201.03;;;-13.41;45.90
59829;BME280;45708;51.848;107.620;2023-03-21T20:25:07;95207.63;;;-13.37;45.91
59829;BME280;45708;51.848;107.620;2023-03-21T20:30:12;95202.00;;;-13.44;46.14
59829;BME280;45708;51.848;107.620;2023-03-21T20:35:15;95211.72;;;-13.52;47.02
59829;BME280;45708;51.848;107.620;2023-03-21T20:40:17;95207.00;;;-13.60;46.96
59829;BME280;45708;51.848;107.620;2023-03-21T20:45:18;95202.34;;;-13.69;45.96
59829;BME280;45708;51.848;107.620;2023-03-21T20:50:19;95203.59;;;-13.77;46.48
59829;BME280;45708;51.848;107.620;2023-03-21T20:55:20;95200.97;;;-13.76;46.19
59829;BME280;45708;51.848;107.620;2023-03-21T21:00:21;95218.25;;;-13.84;47.58
59829;BME280;45708;51.848;107.620;2023-03-21T21:05:22;95208.75;;;-13.98;46.83
59829;BME280;45708;51.848;107.620;2023-03-21T21:10:23;95214.16;;;-14.05;46.90
59829;BME280;45708;51.848;107.620;2023-03-21T21:15:24;95233.50;;;-14.03;46.77
59829;BME280;45708;51.848;107.620;2023-03-21T21:20:25;95229.38;;;-14.05;47.35
59829;BME280;45708;51.848;107.620;2023-03-21T21:25:27;95230.78;;;-13.98;47.29
59829;BME280;45708;51.848;107.620;2023-03-21T21:30:29;95230.09;;;-14.21;46.55
59829;BME280;45708;51.848;107.620;2023-03-21T21:35:30;95243.63;;;-14.22;46.67
59829;BME280;45708;51.848;107.620;2023-03-21T21:40:30;95233.91;;;-14.31;47.58
59829;BME280;45708;51.848;107.620;2023-03-21T21:45:31;95235.69;;;-14.33;46.60
59829;BME280;45708;51.848;107.620;2023-03-21T21:50:33;95241.13;;;-14.42;47.49
59829;BME280;45708;51.848;107.620;2023-03-21T21:55:34;95247.00;;;-14.40;47.32
59829;BME280;45708;51.848;107.620;2023-03-21T22:00:35;95266.94;;;-14.51;47.08
59829;BME280;45708;51.848;107.620;2023-03-21T22:05:36;95257.88;;;-14.57;47.44
59829;BME280;45708;51.848;107.620;2023-03-21T22:10:37;95278.72;;;-14.50;46.74
59829;BME280;45708;51.848;107.620;2023-03-21T22:15:38;95283.53;;;-14.44;46.78
59829;BME280;45708;51.848;107.620;2023-03-21T22:20:39;95278.88;;;-14.53;46.36
59829;BME280;45708;51.848;107.620;2023-03-21T22:25:40;95292.31;;;-14.51;47.16
59829;BME280;45708;51.848;107.620;2023-03-21T22:30:41;95285.66;;;-14.54;46.80
59829;BME280;45708;51.848;107.620;2023-03-21T22:35:43;95303.47;;;-14.55;46.79
59829;BME280;45708;51.848;107.620;2023-03-21T22:40:44;95313.09;;;-14.63;45.87
59829;BME280;45708;51.848;107.620;2023-03-21T22:45:45;95318.41;;;-14.69;46.41
59829;BME280;45708;51.848;107.620;2023-03-21T22:50:46;95326.22;;;-14.74;46.27
59829;BME280;45708;51.848;107.620;2023-03-21T22:55:47;95333.44;;;-14.65;47.00
59829;BME280;45708;51.848;107.620;2023-03-21T23:00:48;95343.47;;;-14.84;45.84
59829;BME280;45708;51.848;107.620;2023-03-21T23:05:49;95349.31;;;-14.82;45.90
59829;BME280;45708;51.848;107.620;2023-03-21T23:10:50;95357.94;;;-14.86;45.71
59829;BME280;45708;51.848;107.620;2023-03-21T23:15:51;95358.06;;;-14.89;46.92
59829;BME280;45708;51.848;107.620;2023-03-21T23:20:52;95365.72;;;-14.90;46.53
59829;BME280;45708;51.848;107.620;2023-03-21T23:25:53;95361.34;;;-14.87;45.68
59829;BME280;45708;51.848;107.620;2023-03-21T23:30:54;95378.09;;;-14.83;46.40
59829;BME280;45708;51.848;107.620;2023-03-21T23:35:55;95382.94;;;-14.77;45.71
59829;BME280;45708;51.848;107.620;2023-03-21T23:40:56;95376.97;;;-14.76;46.22
59829;BME280;45708;51.848;107.620;2023-03-21T23:45:57;95385.72;;;-14.62;46.40
59829;BME280;45708;51.848;107.620;2023-03-21T23:50:57;95380.88;;;-14.47;45.31
59829;BME280;45708;51.848;107.620;2023-03-21T23:55:58;95388.69;;;-14.51;45.56
